Santa Fe, NM (87592)

8:34 PM MDT on August 27, 2014 (GMT -0600)
Tesuque Fire District | Change Station
CLOSE
Current Station
Personal Weather Station
Location: Tesuque, NM
Elevation: 6608 ft
Nearby Weather Stations

Elev 6608 ft 35.78 °N, 105.95 °W | Updated 8 minutes ago

Clear
Clear
63.8 °F
Feels Like 63.8 °F
N
0.0
Wind Variable Wind from SSE
Gusts 1.0 mph

Today
High -- | Low -- °F
--% Chance of Precip.
Yesterday
High -- | Low -- °F
Precip. -- in
6:32 AM 7:38 PM
Waxing Crescent, 6% visible
Pressure 30.01 in
Visibility 10.0 miles
Clouds Clear
Dew Point 53 °F
Humidity 67%
Rainfall 0.22 in
Snow Depth 0 in
UV 0 out of 12
Pollen 4.40 out of 12
Air Quality Not available.
Flu Activity Not available.
METAR KSAF 280153Z 30007KT 10SM CLR 18/06 A3025 RMK AO2 SLP160 T01830061

More Conditions Fewer Conditions

Pressure 30.01 in
Visibility 10.0 miles
Clouds Clear
Dew Point 53 °F
Humidity 67%
Rainfall 0.22 in
Snow Depth 0 in
UV 0 out of 12
Pollen 4.40 out of 12
Air Quality Not available.
Flu Activity Not available.
METAR KSAF 280153Z 30007KT 10SM CLR 18/06 A3025 RMK AO2 SLP160 T01830061

More Conditions Fewer Conditions

10-Day Weather Forecast

Almanac

Astronomy

Aug. 27, 2014 Rise Set
Actual Time 6:32 AM MDT 7:38 PM MDT
Civil Twilight 6:05 AM MDT 8:04 PM MDT
Nautical Twilight 5:34 AM MDT 8:35 PM MDT
Astronomical Twilight 5:01 AM MDT 9:08 PM MDT
Moon 8:25 AM MDT (8/27) 8:37 PM MDT (8/27)
Length of Visible Light 13h 58m
Length of Day
13h 06m
Tomorrow will be 2m 8s shorter.
Waxing Crescent, 6% of the Moon is Illuminated
Today
Waxing Crescent
Sep 2
First Quarter
Sep 8
Full
Sep 15
Last Quarter
Sep 24
New

Today's Extremes

State Highs State Lows

Community

WunderPhotos

Upload Photos

1,747,872 photos uploaded!

Nearby

Snow Depth

Station Depth Elevation
Santa Fe 0 in 11445 ft
Quemazon 1 in 9500 ft
Wesner Springs 2 in 11120 ft
Gallegos Peak 0 in 9800 ft
Senorita Divide #2 0 in 8600 ft

Earthquake Activity

City Distance Mag. Time & Date
No recent earthquake activity has been reported nearby.
Minimum magnitude displayed is 2.5.

Coastal Water Temperatures

Place Temperature
No Stations Reporting

Nearby Weather Stations